Friendship, North Carolina
Current Conditions -  °F | °C
As of 4:54 PM on Thursday 27 Nov 2014 (Local Time) from KGSO Reporting Station
Broken Clouds Broken Clouds  
Wind Chill: 34°   Ceiling: 5000
Heat Index: 42°   Visibility: 10mi
Dew Point: 26°   Wind: 17mph
Humidity: 53%   Direction: 310°NW
Pressure: 30.14"   Gusts: 25mph
Location:  36.1197°N, 79.8944°W
Report Text: KGSO 272154Z 31015G22KT 10SM BKN050 06/M03 A3014 RMK AO2 SLP210 T00561033 $
Loading
Personal Weather Stations






























Interactive Weather Map New forecast layout! Learn more

10-Day Weather Forecast

Advertisements
Track Severe Weather on mobile